Kentwood, Michigan
Current Conditions -  °F | °C
As of 2:53 PM on Monday 22 Dec 2014 (Local Time) from KGRR Reporting Station
Light Snow Light Snow  
Wind Chill: 28°   Ceiling: 5000
Heat Index: 36°   Visibility: 6mi
Dew Point: 28°   Wind: 13mph
Humidity: 73%   Direction: 100°E
Pressure: 29.88"   Gusts: NA
Location:  42.87°N, 85.6°W
Report Text: KGRR 221953Z 10011KT 6SM -SN FEW040 OVC050 02/M02 A2988 RMK AO2 SNB26 SLP127 P0000 T00221022
Loading
Personal Weather Stations






























Interactive Weather Map New forecast layout! Learn more

10-Day Weather Forecast

Advertisements
Track Severe Weather on mobile